sensor_id;sensor_type;location;lat;lon;timestamp;temperature;humidity
4896;DHT22;2463;49.948;8.472;2023-05-16T00:00:30;14.70;99.90
4896;DHT22;2463;49.948;8.472;2023-05-16T00:03:01;14.70;99.90
4896;DHT22;2463;49.948;8.472;2023-05-16T00:05:29;14.70;99.90
4896;DHT22;2463;49.948;8.472;2023-05-16T00:07:55;14.70;99.90
4896;DHT22;2463;49.948;8.472;2023-05-16T00:10:22;14.70;99.90
4896;DHT22;2463;49.948;8.472;2023-05-16T00:12:49;14.60;99.90
4896;DHT22;2463;49.948;8.472;2023-05-16T00:15:19;14.60;99.90
4896;DHT22;2463;49.948;8.472;2023-05-16T00:17:45;14.60;99.90
4896;DHT22;2463;49.948;8.472;2023-05-16T00:20:13;14.60;99.90
4896;DHT22;2463;49.948;8.472;2023-05-16T00:22:40;14.50;99.90
4896;DHT22;2463;49.948;8.472;2023-05-16T00:25:07;14.50;99.90
4896;DHT22;2463;49.948;8.472;2023-05-16T00:27:35;14.50;99.90
4896;DHT22;2463;49.948;8.472;2023-05-16T00:30:02;14.40;99.90
4896;DHT22;2463;49.948;8.472;2023-05-16T00:32:29;14.40;99.90
4896;DHT22;2463;49.948;8.472;2023-05-16T00:34:56;14.40;99.90
4896;DHT22;2463;49.948;8.472;2023-05-16T00:37:23;14.40;99.90
4896;DHT22;2463;49.948;8.472;2023-05-16T00:39:50;14.40;99.90
4896;DHT22;2463;49.948;8.472;2023-05-16T00:42:19;14.30;99.90
4896;DHT22;2463;49.948;8.472;2023-05-16T00:44:49;14.40;99.90
4896;DHT22;2463;49.948;8.472;2023-05-16T00:47:16;14.30;99.90
4896;DHT22;2463;49.948;8.472;2023-05-16T00:49:42;14.30;99.90
4896;DHT22;2463;49.948;8.472;2023-05-16T00:52:09;14.30;99.90
4896;DHT22;2463;49.948;8.472;2023-05-16T00:54:37;14.30;99.90
4896;DHT22;2463;49.948;8.472;2023-05-16T00:57:04;14.30;99.90
4896;DHT22;2463;49.948;8.472;2023-05-16T00:59:32;14.30;99.90
4896;DHT22;2463;49.948;8.472;2023-05-16T01:01:59;14.30;99.90
4896;DHT22;2463;49.948;8.472;2023-05-16T01:04:27;14.30;99.90
4896;DHT22;2463;49.948;8.472;2023-05-16T01:06:57;14.20;99.90
4896;DHT22;2463;49.948;8.472;2023-05-16T01:09:24;14.20;99.90
4896;DHT22;2463;49.948;8.472;2023-05-16T01:11:51;14.20;99.90
4896;DHT22;2463;49.948;8.472;2023-05-16T01:14:42;14.20;99.90
4896;DHT22;2463;49.948;8.472;2023-05-16T01:17:33;14.20;99.90
4896;DHT22;2463;49.948;8.472;2023-05-16T01:23:23;14.20;99.90
4896;DHT22;2463;49.948;8.472;2023-05-16T01:25:57;14.20;99.90
4896;DHT22;2463;49.948;8.472;2023-05-16T01:28:27;14.20;99.90
4896;DHT22;2463;49.948;8.472;2023-05-16T01:30:54;14.20;99.90
4896;DHT22;2463;49.948;8.472;2023-05-16T01:33:20;14.20;99.90
4896;DHT22;2463;49.948;8.472;2023-05-16T01:36:09;14.20;99.90
4896;DHT22;2463;49.948;8.472;2023-05-16T01:39:13;14.20;99.90
4896;DHT22;2463;49.948;8.472;2023-05-16T01:47:19;14.20;99.90
4896;DHT22;2463;49.948;8.472;2023-05-16T01:50:02;14.10;99.90
4896;DHT22;2463;49.948;8.472;2023-05-16T01:52:37;14.10;99.90
4896;DHT22;2463;49.948;8.472;2023-05-16T01:55:10;14.10;99.90
4896;DHT22;2463;49.948;8.472;2023-05-16T01:57:39;14.00;99.90
4896;DHT22;2463;49.948;8.472;2023-05-16T02:00:08;14.00;99.90
4896;DHT22;2463;49.948;8.472;2023-05-16T02:02:34;13.90;99.90
4896;DHT22;2463;49.948;8.472;2023-05-16T02:05:01;13.90;99.90
4896;DHT22;2463;49.948;8.472;2023-05-16T02:07:28;13.80;99.90
4896;DHT22;2463;49.948;8.472;2023-05-16T02:09:54;13.80;99.90
4896;DHT22;2463;49.948;8.472;2023-05-16T02:12:21;13.70;99.90
4896;DHT22;2463;49.948;8.472;2023-05-16T02:14:48;13.70;99.90
4896;DHT22;2463;49.948;8.472;2023-05-16T02:17:14;13.60;99.90
4896;DHT22;2463;49.948;8.472;2023-05-16T02:19:41;13.60;99.90
4896;DHT22;2463;49.948;8.472;2023-05-16T02:22:08;13.50;99.90
4896;DHT22;2463;49.948;8.472;2023-05-16T02:24:35;13.40;99.90
4896;DHT22;2463;49.948;8.472;2023-05-16T02:27:01;13.40;99.90
4896;DHT22;2463;49.948;8.472;2023-05-16T02:29:28;13.40;99.90
4896;DHT22;2463;49.948;8.472;2023-05-16T02:31:55;13.30;99.90
4896;DHT22;2463;49.948;8.472;2023-05-16T02:34:21;13.30;99.90
4896;DHT22;2463;49.948;8.472;2023-05-16T02:36:48;13.30;99.90
4896;DHT22;2463;49.948;8.472;2023-05-16T02:39:15;13.20;99.90
4896;DHT22;2463;49.948;8.472;2023-05-16T02:41:41;13.20;99.90
4896;DHT22;2463;49.948;8.472;2023-05-16T02:44:08;13.20;99.90
4896;DHT22;2463;49.948;8.472;2023-05-16T02:46:34;13.10;99.90
4896;DHT22;2463;49.948;8.472;2023-05-16T02:49:02;13.10;99.90
4896;DHT22;2463;49.948;8.472;2023-05-16T02:51:29;13.10;99.90
4896;DHT22;2463;49.948;8.472;2023-05-16T02:53:55;13.10;99.90
4896;DHT22;2463;49.948;8.472;2023-05-16T02:56:22;13.10;99.90
4896;DHT22;2463;49.948;8.472;2023-05-16T02:58:49;13.10;99.90
4896;DHT22;2463;49.948;8.472;2023-05-16T03:01:16;13.10;99.90
4896;DHT22;2463;49.948;8.472;2023-05-16T03:03:43;13.10;99.90
4896;DHT22;2463;49.948;8.472;2023-05-16T03:06:10;13.10;99.90
4896;DHT22;2463;49.948;8.472;2023-05-16T03:08:37;13.10;99.90
4896;DHT22;2463;49.948;8.472;2023-05-16T03:11:04;13.10;99.90
4896;DHT22;2463;49.948;8.472;2023-05-16T03:13:31;13.10;99.90
4896;DHT22;2463;49.948;8.472;2023-05-16T03:15:58;13.10;99.90
4896;DHT22;2463;49.948;8.472;2023-05-16T03:18:25;13.10;99.90
4896;DHT22;2463;49.948;8.472;2023-05-16T03:20:52;13.20;99.90
4896;DHT22;2463;49.948;8.472;2023-05-16T03:23:19;13.20;99.90
4896;DHT22;2463;49.948;8.472;2023-05-16T03:25:46;13.20;99.90
4896;DHT22;2463;49.948;8.472;2023-05-16T03:28:15;13.10;99.90
4896;DHT22;2463;49.948;8.472;2023-05-16T03:30:41;13.20;99.90
4896;DHT22;2463;49.948;8.472;2023-05-16T03:33:08;13.20;99.90
4896;DHT22;2463;49.948;8.472;2023-05-16T03:35:35;13.20;99.90
4896;DHT22;2463;49.948;8.472;2023-05-16T03:38:02;13.20;99.90
4896;DHT22;2463;49.948;8.472;2023-05-16T03:40:29;13.30;99.90
4896;DHT22;2463;49.948;8.472;2023-05-16T03:42:56;13.30;99.90
4896;DHT22;2463;49.948;8.472;2023-05-16T03:45:23;13.30;99.90
4896;DHT22;2463;49.948;8.472;2023-05-16T03:47:49;13.40;99.90
4896;DHT22;2463;49.948;8.472;2023-05-16T03:50:16;13.40;99.90
4896;DHT22;2463;49.948;8.472;2023-05-16T03:52:43;13.40;99.90
4896;DHT22;2463;49.948;8.472;2023-05-16T03:55:10;13.40;99.90
4896;DHT22;2463;49.948;8.472;2023-05-16T03:57:40;13.30;99.90
4896;DHT22;2463;49.948;8.472;2023-05-16T04:00:09;13.40;99.90
4896;DHT22;2463;49.948;8.472;2023-05-16T04:02:39;13.40;99.90
4896;DHT22;2463;49.948;8.472;2023-05-16T04:05:07;13.50;99.90
4896;DHT22;2463;49.948;8.472;2023-05-16T04:07:35;13.50;99.90
4896;DHT22;2463;49.948;8.472;2023-05-16T04:10:03;13.50;99.90
4896;DHT22;2463;49.948;8.472;2023-05-16T04:12:30;13.50;99.90
4896;DHT22;2463;49.948;8.472;2023-05-16T04:14:56;13.50;99.90
4896;DHT22;2463;49.948;8.472;2023-05-16T04:17:23;13.60;99.90
4896;DHT22;2463;49.948;8.472;2023-05-16T04:19:50;13.70;99.90
4896;DHT22;2463;49.948;8.472;2023-05-16T04:22:17;13.70;99.90
4896;DHT22;2463;49.948;8.472;2023-05-16T04:24:43;13.60;99.90
4896;DHT22;2463;49.948;8.472;2023-05-16T04:27:10;13.60;99.90
4896;DHT22;2463;49.948;8.472;2023-05-16T04:29:37;13.70;99.90
4896;DHT22;2463;49.948;8.472;2023-05-16T04:32:04;13.70;99.90
4896;DHT22;2463;49.948;8.472;2023-05-16T04:34:33;13.70;99.90
4896;DHT22;2463;49.948;8.472;2023-05-16T04:37:06;13.70;99.90
4896;DHT22;2463;49.948;8.472;2023-05-16T04:39:34;13.70;99.90
4896;DHT22;2463;49.948;8.472;2023-05-16T04:42:01;13.80;99.90
4896;DHT22;2463;49.948;8.472;2023-05-16T04:44:29;13.70;99.90
4896;DHT22;2463;49.948;8.472;2023-05-16T04:46:56;13.80;99.90
4896;DHT22;2463;49.948;8.472;2023-05-16T04:49:23;13.80;99.90
4896;DHT22;2463;49.948;8.472;2023-05-16T04:51:49;13.80;99.90
4896;DHT22;2463;49.948;8.472;2023-05-16T04:54:16;13.80;99.90
4896;DHT22;2463;49.948;8.472;2023-05-16T04:56:43;13.90;99.90
4896;DHT22;2463;49.948;8.472;2023-05-16T04:59:10;14.00;99.90
4896;DHT22;2463;49.948;8.472;2023-05-16T05:01:36;14.00;99.90
4896;DHT22;2463;49.948;8.472;2023-05-16T05:04:03;14.00;99.90
4896;DHT22;2463;49.948;8.472;2023-05-16T05:06:30;14.10;99.90
4896;DHT22;2463;49.948;8.472;2023-05-16T05:08:57;14.10;99.90
4896;DHT22;2463;49.948;8.472;2023-05-16T05:11:23;14.20;99.90
4896;DHT22;2463;49.948;8.472;2023-05-16T05:13:50;14.40;99.90
4896;DHT22;2463;49.948;8.472;2023-05-16T05:16:18;14.50;99.90
4896;DHT22;2463;49.948;8.472;2023-05-16T05:18:45;14.50;99.90
4896;DHT22;2463;49.948;8.472;2023-05-16T05:21:12;14.60;99.90
4896;DHT22;2463;49.948;8.472;2023-05-16T05:23:39;14.70;99.90
4896;DHT22;2463;49.948;8.472;2023-05-16T05:26:06;14.80;99.90
4896;DHT22;2463;49.948;8.472;2023-05-16T05:28:33;14.80;99.90
4896;DHT22;2463;49.948;8.472;2023-05-16T05:30:59;14.80;99.90
4896;DHT22;2463;49.948;8.472;2023-05-16T05:33:26;14.80;99.90
4896;DHT22;2463;49.948;8.472;2023-05-16T05:35:56;14.80;99.90
4896;DHT22;2463;49.948;8.472;2023-05-16T05:38:23;14.70;99.90
4896;DHT22;2463;49.948;8.472;2023-05-16T05:40:49;14.80;99.90
4896;DHT22;2463;49.948;8.472;2023-05-16T05:43:16;14.80;99.90
4896;DHT22;2463;49.948;8.472;2023-05-16T05:45:43;14.90;99.90
4896;DHT22;2463;49.948;8.472;2023-05-16T05:48:10;15.00;99.90
4896;DHT22;2463;49.948;8.472;2023-05-16T05:50:38;15.00;99.90
4896;DHT22;2463;49.948;8.472;2023-05-16T05:53:04;15.10;99.90
4896;DHT22;2463;49.948;8.472;2023-05-16T05:55:31;15.00;99.90
4896;DHT22;2463;49.948;8.472;2023-05-16T05:57:58;15.00;99.90
4896;DHT22;2463;49.948;8.472;2023-05-16T06:00:25;15.00;99.90
4896;DHT22;2463;49.948;8.472;2023-05-16T06:02:51;14.90;99.90
4896;DHT22;2463;49.948;8.472;2023-05-16T06:05:19;15.00;99.90
4896;DHT22;2463;49.948;8.472;2023-05-16T06:07:45;14.90;99.90
4896;DHT22;2463;49.948;8.472;2023-05-16T06:10:12;14.90;99.90
4896;DHT22;2463;49.948;8.472;2023-05-16T06:12:38;14.80;99.90
4896;DHT22;2463;49.948;8.472;2023-05-16T06:15:06;14.70;99.90
4896;DHT22;2463;49.948;8.472;2023-05-16T06:17:33;14.70;99.90
4896;DHT22;2463;49.948;8.472;2023-05-16T06:19:59;14.60;99.90
4896;DHT22;2463;49.948;8.472;2023-05-16T06:22:26;14.60;99.90
4896;DHT22;2463;49.948;8.472;2023-05-16T06:24:53;14.60;99.90
4896;DHT22;2463;49.948;8.472;2023-05-16T06:27:20;14.60;99.90
4896;DHT22;2463;49.948;8.472;2023-05-16T06:29:46;14.50;99.90
4896;DHT22;2463;49.948;8.472;2023-05-16T06:32:13;14.50;99.90
4896;DHT22;2463;49.948;8.472;2023-05-16T06:34:40;14.50;99.90
4896;DHT22;2463;49.948;8.472;2023-05-16T06:37:06;14.30;99.90
4896;DHT22;2463;49.948;8.472;2023-05-16T06:39:33;14.30;99.90
4896;DHT22;2463;49.948;8.472;2023-05-16T06:42:00;14.30;99.90
4896;DHT22;2463;49.948;8.472;2023-05-16T06:44:26;14.30;99.90
4896;DHT22;2463;49.948;8.472;2023-05-16T06:46:53;14.20;99.90
4896;DHT22;2463;49.948;8.472;2023-05-16T06:49:20;14.20;99.90
4896;DHT22;2463;49.948;8.472;2023-05-16T06:51:47;14.20;99.90
4896;DHT22;2463;49.948;8.472;2023-05-16T06:54:13;14.10;99.90
4896;DHT22;2463;49.948;8.472;2023-05-16T06:56:40;14.00;99.90
4896;DHT22;2463;49.948;8.472;2023-05-16T06:59:07;14.00;99.90
4896;DHT22;2463;49.948;8.472;2023-05-16T07:01:34;13.90;99.90
4896;DHT22;2463;49.948;8.472;2023-05-16T07:04:01;13.90;99.90
4896;DHT22;2463;49.948;8.472;2023-05-16T07:06:27;13.90;99.90
4896;DHT22;2463;49.948;8.472;2023-05-16T07:08:54;13.90;99.90
4896;DHT22;2463;49.948;8.472;2023-05-16T07:11:21;13.90;99.90
4896;DHT22;2463;49.948;8.472;2023-05-16T07:13:48;13.90;99.90
4896;DHT22;2463;49.948;8.472;2023-05-16T07:16:15;14.00;99.90
4896;DHT22;2463;49.948;8.472;2023-05-16T07:18:41;13.90;99.90
4896;DHT22;2463;49.948;8.472;2023-05-16T07:21:09;13.90;99.90
4896;DHT22;2463;49.948;8.472;2023-05-16T07:23:35;13.80;99.90
4896;DHT22;2463;49.948;8.472;2023-05-16T07:26:02;13.80;99.90
4896;DHT22;2463;49.948;8.472;2023-05-16T07:28:29;13.80;99.90
4896;DHT22;2463;49.948;8.472;2023-05-16T07:30:55;13.80;99.90
4896;DHT22;2463;49.948;8.472;2023-05-16T07:33:24;13.90;99.90
4896;DHT22;2463;49.948;8.472;2023-05-16T07:35:51;13.90;99.90
4896;DHT22;2463;49.948;8.472;2023-05-16T07:38:29;13.90;99.90
4896;DHT22;2463;49.948;8.472;2023-05-16T07:40:56;13.90;99.90
4896;DHT22;2463;49.948;8.472;2023-05-16T07:43:23;13.80;99.90
4896;DHT22;2463;49.948;8.472;2023-05-16T07:45:50;13.80;99.90
4896;DHT22;2463;49.948;8.472;2023-05-16T07:48:17;13.80;99.90
4896;DHT22;2463;49.948;8.472;2023-05-16T07:50:44;13.80;99.90
4896;DHT22;2463;49.948;8.472;2023-05-16T07:53:11;13.80;99.90
4896;DHT22;2463;49.948;8.472;2023-05-16T07:55:37;13.80;99.90
4896;DHT22;2463;49.948;8.472;2023-05-16T07:58:04;13.80;99.90
4896;DHT22;2463;49.948;8.472;2023-05-16T08:00:31;13.80;99.90
4896;DHT22;2463;49.948;8.472;2023-05-16T08:02:58;13.90;99.90
4896;DHT22;2463;49.948;8.472;2023-05-16T08:05:25;13.80;99.90
4896;DHT22;2463;49.948;8.472;2023-05-16T08:07:52;13.80;99.90
4896;DHT22;2463;49.948;8.472;2023-05-16T08:10:19;13.80;99.90
4896;DHT22;2463;49.948;8.472;2023-05-16T08:12:45;13.80;99.90
4896;DHT22;2463;49.948;8.472;2023-05-16T08:15:14;13.80;99.90
4896;DHT22;2463;49.948;8.472;2023-05-16T08:17:40;13.80;99.90
4896;DHT22;2463;49.948;8.472;2023-05-16T08:20:08;13.80;99.90
4896;DHT22;2463;49.948;8.472;2023-05-16T08:22:34;13.80;99.90
4896;DHT22;2463;49.948;8.472;2023-05-16T08:25:01;13.80;99.90
4896;DHT22;2463;49.948;8.472;2023-05-16T08:27:28;13.80;99.90
4896;DHT22;2463;49.948;8.472;2023-05-16T08:29:55;13.70;99.90
4896;DHT22;2463;49.948;8.472;2023-05-16T08:32:21;13.70;99.90
4896;DHT22;2463;49.948;8.472;2023-05-16T08:34:48;13.70;99.90
4896;DHT22;2463;49.948;8.472;2023-05-16T08:37:15;13.70;99.90
4896;DHT22;2463;49.948;8.472;2023-05-16T08:39:43;13.70;99.90
4896;DHT22;2463;49.948;8.472;2023-05-16T08:42:09;13.80;99.90
4896;DHT22;2463;49.948;8.472;2023-05-16T08:44:36;13.80;99.90
4896;DHT22;2463;49.948;8.472;2023-05-16T08:47:10;13.80;99.90
4896;DHT22;2463;49.948;8.472;2023-05-16T08:49:40;13.80;99.90
4896;DHT22;2463;49.948;8.472;2023-05-16T08:52:08;13.80;99.90
4896;DHT22;2463;49.948;8.472;2023-05-16T08:54:36;13.90;99.90
4896;DHT22;2463;49.948;8.472;2023-05-16T08:57:03;13.90;99.90
4896;DHT22;2463;49.948;8.472;2023-05-16T08:59:31;13.90;99.90
4896;DHT22;2463;49.948;8.472;2023-05-16T09:01:58;13.90;99.90
4896;DHT22;2463;49.948;8.472;2023-05-16T09:04:25;14.10;99.90
4896;DHT22;2463;49.948;8.472;2023-05-16T09:06:53;14.10;99.90
4896;DHT22;2463;49.948;8.472;2023-05-16T09:09:19;14.10;99.90
4896;DHT22;2463;49.948;8.472;2023-05-16T09:11:46;14.20;99.90
4896;DHT22;2463;49.948;8.472;2023-05-16T09:14:13;14.30;99.90
4896;DHT22;2463;49.948;8.472;2023-05-16T09:16:40;14.40;99.90
4896;DHT22;2463;49.948;8.472;2023-05-16T09:19:11;14.50;99.90
4896;DHT22;2463;49.948;8.472;2023-05-16T09:21:38;14.70;99.90
4896;DHT22;2463;49.948;8.472;2023-05-16T09:24:07;14.80;99.90
4896;DHT22;2463;49.948;8.472;2023-05-16T09:26:36;14.90;99.90
4896;DHT22;2463;49.948;8.472;2023-05-16T09:29:13;15.10;99.90
4896;DHT22;2463;49.948;8.472;2023-05-16T09:31:40;15.40;99.90
4896;DHT22;2463;49.948;8.472;2023-05-16T09:34:07;15.40;99.90
4896;DHT22;2463;49.948;8.472;2023-05-16T09:36:34;15.50;99.90
4896;DHT22;2463;49.948;8.472;2023-05-16T09:39:02;15.70;99.90
4896;DHT22;2463;49.948;8.472;2023-05-16T09:41:32;15.80;99.90
4896;DHT22;2463;49.948;8.472;2023-05-16T09:44:03;15.90;99.90
4896;DHT22;2463;49.948;8.472;2023-05-16T09:46:33;16.00;99.90
4896;DHT22;2463;49.948;8.472;2023-05-16T09:49:01;16.60;99.90
4896;DHT22;2463;49.948;8.472;2023-05-16T09:51:28;15.90;99.90
4896;DHT22;2463;49.948;8.472;2023-05-16T09:53:57;15.80;99.90
4896;DHT22;2463;49.948;8.472;2023-05-16T09:56:24;15.80;99.90
4896;DHT22;2463;49.948;8.472;2023-05-16T09:58:51;15.90;99.90
4896;DHT22;2463;49.948;8.472;2023-05-16T10:01:18;16.10;99.90
4896;DHT22;2463;49.948;8.472;2023-05-16T10:03:45;16.20;99.90
4896;DHT22;2463;49.948;8.472;2023-05-16T10:06:13;16.30;99.90
4896;DHT22;2463;49.948;8.472;2023-05-16T10:08:41;16.40;99.90
4896;DHT22;2463;49.948;8.472;2023-05-16T10:11:09;16.50;99.90
4896;DHT22;2463;49.948;8.472;2023-05-16T10:13:37;16.60;99.90
4896;DHT22;2463;49.948;8.472;2023-05-16T10:16:07;16.60;99.90
4896;DHT22;2463;49.948;8.472;2023-05-16T10:18:37;16.50;99.90
4896;DHT22;2463;49.948;8.472;2023-05-16T10:21:12;16.30;99.90
4896;DHT22;2463;49.948;8.472;2023-05-16T10:23:45;16.10;99.90
4896;DHT22;2463;49.948;8.472;2023-05-16T10:26:15;15.90;99.90
4896;DHT22;2463;49.948;8.472;2023-05-16T10:28:42;15.90;99.90
4896;DHT22;2463;49.948;8.472;2023-05-16T10:31:10;16.10;99.90
4896;DHT22;2463;49.948;8.472;2023-05-16T10:33:38;16.30;99.90
4896;DHT22;2463;49.948;8.472;2023-05-16T10:36:06;16.40;99.90
4896;DHT22;2463;49.948;8.472;2023-05-16T10:38:34;16.60;99.90
4896;DHT22;2463;49.948;8.472;2023-05-16T10:41:02;16.50;99.90
4896;DHT22;2463;49.948;8.472;2023-05-16T10:43:29;16.60;99.90
4896;DHT22;2463;49.948;8.472;2023-05-16T10:46:04;16.60;99.90
4896;DHT22;2463;49.948;8.472;2023-05-16T10:48:37;16.70;99.90
4896;DHT22;2463;49.948;8.472;2023-05-16T10:53:53;17.10;99.90
4896;DHT22;2463;49.948;8.472;2023-05-16T10:56:25;17.10;99.90
4896;DHT22;2463;49.948;8.472;2023-05-16T10:58:53;17.20;99.90
4896;DHT22;2463;49.948;8.472;2023-05-16T11:01:31;17.20;99.90
4896;DHT22;2463;49.948;8.472;2023-05-16T11:06:44;17.30;99.90
4896;DHT22;2463;49.948;8.472;2023-05-16T11:11:50;17.50;99.90
4896;DHT22;2463;49.948;8.472;2023-05-16T11:17:22;17.60;99.90
4896;DHT22;2463;49.948;8.472;2023-05-16T11:22:24;17.60;99.90
4896;DHT22;2463;49.948;8.472;2023-05-16T11:25:04;17.90;99.90
4896;DHT22;2463;49.948;8.472;2023-05-16T11:27:36;17.90;99.90
4896;DHT22;2463;49.948;8.472;2023-05-16T11:30:11;17.80;99.90
4896;DHT22;2463;49.948;8.472;2023-05-16T11:32:40;17.80;99.90
4896;DHT22;2463;49.948;8.472;2023-05-16T11:35:08;17.60;99.90
4896;DHT22;2463;49.948;8.472;2023-05-16T11:37:38;17.60;99.90
4896;DHT22;2463;49.948;8.472;2023-05-16T11:40:07;17.50;99.90
4896;DHT22;2463;49.948;8.472;2023-05-16T11:42:36;17.40;99.90
4896;DHT22;2463;49.948;8.472;2023-05-16T11:45:11;17.50;99.90
4896;DHT22;2463;49.948;8.472;2023-05-16T11:47:39;17.40;99.90
4896;DHT22;2463;49.948;8.472;2023-05-16T11:50:10;17.40;99.90
4896;DHT22;2463;49.948;8.472;2023-05-16T11:52:37;17.50;99.90
4896;DHT22;2463;49.948;8.472;2023-05-16T11:55:07;17.60;99.90
4896;DHT22;2463;49.948;8.472;2023-05-16T11:57:40;17.70;99.90
4896;DHT22;2463;49.948;8.472;2023-05-16T12:00:14;17.80;99.90
4896;DHT22;2463;49.948;8.472;2023-05-16T12:02:42;18.00;99.90
4896;DHT22;2463;49.948;8.472;2023-05-16T12:05:10;18.10;99.90
4896;DHT22;2463;49.948;8.472;2023-05-16T12:07:37;18.20;99.90
4896;DHT22;2463;49.948;8.472;2023-05-16T12:10:07;18.40;99.90
4896;DHT22;2463;49.948;8.472;2023-05-16T12:12:36;18.70;99.90
4896;DHT22;2463;49.948;8.472;2023-05-16T12:15:04;18.80;99.90
4896;DHT22;2463;49.948;8.472;2023-05-16T12:17:36;19.10;99.90
4896;DHT22;2463;49.948;8.472;2023-05-16T12:20:05;19.30;99.90
4896;DHT22;2463;49.948;8.472;2023-05-16T12:22:32;19.60;99.90
4896;DHT22;2463;49.948;8.472;2023-05-16T12:27:47;20.90;99.90
4896;DHT22;2463;49.948;8.472;2023-05-16T12:30:16;21.60;99.90
4896;DHT22;2463;49.948;8.472;2023-05-16T12:32:43;22.10;99.50
4896;DHT22;2463;49.948;8.472;2023-05-16T12:35:10;22.60;97.80
4896;DHT22;2463;49.948;8.472;2023-05-16T12:37:38;22.70;95.30
4896;DHT22;2463;49.948;8.472;2023-05-16T12:40:09;22.70;93.70
4896;DHT22;2463;49.948;8.472;2023-05-16T12:42:37;22.60;94.30
4896;DHT22;2463;49.948;8.472;2023-05-16T12:45:04;22.50;94.90
4896;DHT22;2463;49.948;8.472;2023-05-16T12:47:39;22.30;95.30
4896;DHT22;2463;49.948;8.472;2023-05-16T12:50:10;22.60;94.10
4896;DHT22;2463;49.948;8.472;2023-05-16T12:52:47;22.60;92.30
4896;DHT22;2463;49.948;8.472;2023-05-16T12:55:19;22.60;91.70
4896;DHT22;2463;49.948;8.472;2023-05-16T12:57:48;22.50;90.70
4896;DHT22;2463;49.948;8.472;2023-05-16T13:00:17;22.50;90.30
4896;DHT22;2463;49.948;8.472;2023-05-16T13:02:45;22.30;89.40
4896;DHT22;2463;49.948;8.472;2023-05-16T13:05:13;22.30;90.10
4896;DHT22;2463;49.948;8.472;2023-05-16T13:07:40;22.40;89.10
4896;DHT22;2463;49.948;8.472;2023-05-16T13:10:09;22.60;90.30
4896;DHT22;2463;49.948;8.472;2023-05-16T13:12:38;22.70;87.30
4896;DHT22;2463;49.948;8.472;2023-05-16T13:15:07;22.90;86.90
4896;DHT22;2463;49.948;8.472;2023-05-16T13:17:34;23.00;87.80
4896;DHT22;2463;49.948;8.472;2023-05-16T13:20:02;22.80;85.10
4896;DHT22;2463;49.948;8.472;2023-05-16T13:22:36;22.40;85.60
4896;DHT22;2463;49.948;8.472;2023-05-16T13:25:03;22.30;86.10
4896;DHT22;2463;49.948;8.472;2023-05-16T13:27:32;22.40;86.50
4896;DHT22;2463;49.948;8.472;2023-05-16T13:30:00;22.30;83.30
4896;DHT22;2463;49.948;8.472;2023-05-16T13:32:27;21.90;83.80
4896;DHT22;2463;49.948;8.472;2023-05-16T13:34:53;21.60;85.30
4896;DHT22;2463;49.948;8.472;2023-05-16T13:37:20;21.40;84.40
4896;DHT22;2463;49.948;8.472;2023-05-16T13:39:49;21.30;84.20
4896;DHT22;2463;49.948;8.472;2023-05-16T13:42:16;21.40;84.70
4896;DHT22;2463;49.948;8.472;2023-05-16T13:44:46;21.70;84.80
4896;DHT22;2463;49.948;8.472;2023-05-16T13:47:12;22.10;86.10
4896;DHT22;2463;49.948;8.472;2023-05-16T13:49:39;22.60;83.30
4896;DHT22;2463;49.948;8.472;2023-05-16T13:52:06;22.60;79.80
4896;DHT22;2463;49.948;8.472;2023-05-16T13:54:33;22.50;82.50
4896;DHT22;2463;49.948;8.472;2023-05-16T13:57:01;22.50;82.10
4896;DHT22;2463;49.948;8.472;2023-05-16T13:59:28;22.50;82.10
4896;DHT22;2463;49.948;8.472;2023-05-16T14:02:15;22.50;79.00
4896;DHT22;2463;49.948;8.472;2023-05-16T14:04:42;22.50;79.40
4896;DHT22;2463;49.948;8.472;2023-05-16T14:07:08;22.70;78.50
4896;DHT22;2463;49.948;8.472;2023-05-16T14:09:36;22.80;77.10
4896;DHT22;2463;49.948;8.472;2023-05-16T14:12:08;22.70;75.60
4896;DHT22;2463;49.948;8.472;2023-05-16T14:14:35;22.60;76.10
4896;DHT22;2463;49.948;8.472;2023-05-16T14:17:02;22.60;73.50
4896;DHT22;2463;49.948;8.472;2023-05-16T14:19:29;22.50;74.00
4896;DHT22;2463;49.948;8.472;2023-05-16T14:21:57;22.30;73.80
4896;DHT22;2463;49.948;8.472;2023-05-16T14:24:23;22.20;73.80
4896;DHT22;2463;49.948;8.472;2023-05-16T14:26:50;22.00;73.70
4896;DHT22;2463;49.948;8.472;2023-05-16T14:29:23;21.80;73.70
4896;DHT22;2463;49.948;8.472;2023-05-16T14:31:50;21.90;76.40
4896;DHT22;2463;49.948;8.472;2023-05-16T14:34:17;22.10;77.20
4896;DHT22;2463;49.948;8.472;2023-05-16T14:36:44;22.20;77.90
4896;DHT22;2463;49.948;8.472;2023-05-16T14:39:11;22.00;75.30
4896;DHT22;2463;49.948;8.472;2023-05-16T14:41:37;21.70;74.30
4896;DHT22;2463;49.948;8.472;2023-05-16T14:44:04;21.30;72.70
4896;DHT22;2463;49.948;8.472;2023-05-16T14:46:31;21.00;73.30
4896;DHT22;2463;49.948;8.472;2023-05-16T14:48:58;21.00;74.90
4896;DHT22;2463;49.948;8.472;2023-05-16T14:51:25;21.00;74.50
4896;DHT22;2463;49.948;8.472;2023-05-16T14:53:51;21.00;76.70
4896;DHT22;2463;49.948;8.472;2023-05-16T14:56:18;21.10;76.50
4896;DHT22;2463;49.948;8.472;2023-05-16T14:58:45;21.10;75.30
4896;DHT22;2463;49.948;8.472;2023-05-16T15:01:12;20.90;73.90
4896;DHT22;2463;49.948;8.472;2023-05-16T15:03:38;20.60;74.90
4896;DHT22;2463;49.948;8.472;2023-05-16T15:06:21;20.40;78.00
4896;DHT22;2463;49.948;8.472;2023-05-16T15:08:47;20.10;76.00
4896;DHT22;2463;49.948;8.472;2023-05-16T15:11:14;19.90;74.50
4896;DHT22;2463;49.948;8.472;2023-05-16T15:13:41;19.70;75.10
4896;DHT22;2463;49.948;8.472;2023-05-16T15:16:07;19.60;78.70
4896;DHT22;2463;49.948;8.472;2023-05-16T15:18:34;19.30;76.30
4896;DHT22;2463;49.948;8.472;2023-05-16T15:21:01;19.10;75.10
4896;DHT22;2463;49.948;8.472;2023-05-16T15:23:28;18.90;79.10
4896;DHT22;2463;49.948;8.472;2023-05-16T15:25:55;18.60;77.70
4896;DHT22;2463;49.948;8.472;2023-05-16T15:28:22;18.30;79.80
4896;DHT22;2463;49.948;8.472;2023-05-16T15:30:50;18.20;79.10
4896;DHT22;2463;49.948;8.472;2023-05-16T15:33:17;18.20;77.70
4896;DHT22;2463;49.948;8.472;2023-05-16T15:35:43;18.20;79.20
4896;DHT22;2463;49.948;8.472;2023-05-16T15:38:10;18.30;79.40
4896;DHT22;2463;49.948;8.472;2023-05-16T15:40:37;18.40;81.00
4896;DHT22;2463;49.948;8.472;2023-05-16T15:43:04;18.60;78.80
4896;DHT22;2463;49.948;8.472;2023-05-16T15:45:31;18.50;76.30
4896;DHT22;2463;49.948;8.472;2023-05-16T15:47:58;18.50;75.20
4896;DHT22;2463;49.948;8.472;2023-05-16T15:50:24;18.40;78.80
4896;DHT22;2463;49.948;8.472;2023-05-16T15:52:51;18.40;79.10
4896;DHT22;2463;49.948;8.472;2023-05-16T15:55:18;19.20;78.70
4896;DHT22;2463;49.948;8.472;2023-05-16T15:57:45;18.40;78.10
4896;DHT22;2463;49.948;8.472;2023-05-16T16:00:12;18.50;78.30
4896;DHT22;2463;49.948;8.472;2023-05-16T16:02:39;18.60;80.40
4896;DHT22;2463;49.948;8.472;2023-05-16T16:05:08;18.70;80.10
4896;DHT22;2463;49.948;8.472;2023-05-16T16:07:34;18.70;80.90
4896;DHT22;2463;49.948;8.472;2023-05-16T16:10:01;18.60;79.90
4896;DHT22;2463;49.948;8.472;2023-05-16T16:12:28;18.60;76.90
4896;DHT22;2463;49.948;8.472;2023-05-16T16:14:57;18.50;74.80
4896;DHT22;2463;49.948;8.472;2023-05-16T16:17:23;18.40;75.40
4896;DHT22;2463;49.948;8.472;2023-05-16T16:19:50;18.30;73.50
4896;DHT22;2463;49.948;8.472;2023-05-16T16:22:17;18.30;73.90
4896;DHT22;2463;49.948;8.472;2023-05-16T16:24:46;18.20;74.10
4896;DHT22;2463;49.948;8.472;2023-05-16T16:27:13;18.20;74.30
4896;DHT22;2463;49.948;8.472;2023-05-16T16:29:39;18.30;73.80
4896;DHT22;2463;49.948;8.472;2023-05-16T16:32:06;18.30;74.00